Aviation Digital Data Service (ADDS)

Output produced by METARs form (0004 UTC 23 September 2017)
found at http://aviationweather.gov/adds/metars/
 
KHUL 222320Z 2300/2324 24006KT P6SM SKC